createdAt,value
2023-01-03T00:02:22.221Z,101608.78
2023-01-03T00:04:50.273Z,101606.97
2023-01-03T00:07:33.487Z,101610.84
2023-01-03T00:10:01.443Z,101606.59
2023-01-03T00:12:32.055Z,101611.19
2023-01-03T00:14:59.537Z,101611.47
2023-01-03T00:17:26.974Z,101625.16
2023-01-03T00:19:54.386Z,101620.06
2023-01-03T00:22:23.223Z,101627.09
2023-01-03T00:24:50.694Z,101630.75
2023-01-03T00:27:18.137Z,101620.91
2023-01-03T00:29:46.849Z,101626.63
2023-01-03T00:32:14.460Z,101648.78
2023-01-03T00:34:43.883Z,101644.28
2023-01-03T00:37:11.310Z,101649.63
2023-01-03T00:39:38.821Z,101661.28
2023-01-03T00:42:06.295Z,101654.13
2023-01-03T00:44:33.760Z,101654.25
2023-01-03T00:47:02.512Z,101657.03
2023-01-03T00:49:29.935Z,101661.50
2023-01-03T00:51:57.341Z,101658.84
2023-01-03T00:54:24.884Z,101663.56
2023-01-03T00:56:52.460Z,101665.03
2023-01-03T00:59:21.177Z,101666.50
2023-01-03T01:01:49.854Z,101668.28
2023-01-03T01:04:19.661Z,101681.50
2023-01-03T01:06:48.331Z,101678.25
2023-01-03T01:09:16.950Z,101680.78
2023-01-03T01:11:44.810Z,101686.97
2023-01-03T01:14:20.642Z,101694.13
2023-01-03T01:16:48.370Z,101702.13
2023-01-03T01:19:16.175Z,101702.34
2023-01-03T01:21:45.046Z,101706.84
2023-01-03T01:24:17.528Z,101710.34
2023-01-03T01:26:45.630Z,101711.22
2023-01-03T01:29:13.358Z,101725.41
2023-01-03T01:31:40.842Z,101731.78
2023-01-03T01:34:08.343Z,101734.34
2023-01-03T01:36:37.950Z,101739.69
2023-01-03T01:39:07.865Z,101746.97
2023-01-03T01:41:54.055Z,101746.13
2023-01-03T01:44:46.582Z,101751.56
2023-01-03T01:47:15.742Z,101766.34
2023-01-03T01:49:43.156Z,101768.06
2023-01-03T01:52:10.659Z,101770.13
2023-01-03T01:54:40.459Z,101768.06
2023-01-03T01:57:07.849Z,101773.38
2023-01-03T01:59:35.265Z,101777.00
2023-01-03T02:02:02.894Z,101771.78
2023-01-03T02:04:33.126Z,101777.88
2023-01-03T02:07:00.538Z,101774.34
2023-01-03T02:09:27.948Z,101768.06
2023-01-03T02:12:12.214Z,101778.00
2023-01-03T02:14:45.185Z,101791.34
2023-01-03T02:17:15.168Z,101793.88
2023-01-03T02:19:53.424Z,101796.56
2023-01-03T02:22:53.831Z,101802.00
2023-01-03T02:25:37.582Z,101802.00
2023-01-03T02:28:40.244Z,101805.72
2023-01-03T02:31:10.074Z,101817.13
2023-01-03T02:33:39.678Z,101813.50
2023-01-03T02:36:08.898Z,101815.44
2023-01-03T02:38:40.713Z,101821.38
2023-01-03T02:41:09.840Z,101816.28
2023-01-03T02:43:39.395Z,101833.13
2023-01-03T02:46:07.975Z,101821.38
2023-01-03T02:48:41.871Z,101836.66
2023-01-03T02:51:11.482Z,101836.78
2023-01-03T02:53:39.866Z,101841.13
2023-01-03T02:56:08.881Z,101837.63
2023-01-03T02:58:37.076Z,101832.91
2023-01-03T03:01:04.664Z,101839.31
2023-01-03T03:03:34.292Z,101842.94
2023-01-03T03:06:05.703Z,101845.72
2023-01-03T03:08:33.516Z,101853.72
2023-01-03T03:11:18.544Z,101856.28
2023-01-03T03:13:46.984Z,101857.25
2023-01-03T03:16:18.419Z,101852.78
2023-01-03T03:18:51.543Z,101859.94
2023-01-03T03:21:38.493Z,101857.25
2023-01-03T03:24:24.271Z,101860.78
2023-01-03T03:26:51.682Z,101863.66
2023-01-03T03:29:18.169Z,101870.72
2023-01-03T03:32:06.686Z,101868.03
2023-01-03T03:34:38.061Z,101883.94
2023-01-03T03:37:10.232Z,101878.59
2023-01-03T03:39:55.603Z,101883.94
2023-01-03T03:42:41.497Z,101881.38
2023-01-03T03:45:12.416Z,101869.84
2023-01-03T03:47:42.623Z,101888.28
2023-01-03T03:50:11.521Z,101893.59
2023-01-03T03:52:40.185Z,101890.72
2023-01-03T03:55:10.833Z,101899.56
2023-01-03T03:57:39.645Z,101900.44
2023-01-03T04:00:09.797Z,101903.31
2023-01-03T04:02:39.942Z,101902.13
2023-01-03T04:05:09.081Z,101901.59
2023-01-03T04:07:36.481Z,101914.09
2023-01-03T04:10:05.585Z,101914.72
2023-01-03T04:12:32.998Z,101921.00
2023-01-03T04:15:00.434Z,101923.66
2023-01-03T04:17:27.846Z,101927.09
2023-01-03T04:19:55.251Z,101928.16
2023-01-03T04:22:22.642Z,101930.00
2023-01-03T04:24:50.062Z,101938.72
2023-01-03T04:27:18.768Z,101938.94
2023-01-03T04:29:46.208Z,101935.53
2023-01-03T04:32:13.656Z,101948.75
2023-01-03T04:34:41.150Z,101942.59
2023-01-03T04:37:08.625Z,101951.53
2023-01-03T04:39:36.047Z,101960.28
2023-01-03T04:42:23.441Z,101962.00
2023-01-03T04:44:51.205Z,101962.00
2023-01-03T04:47:18.593Z,101964.75
2023-01-03T04:49:46.513Z,101968.16
2023-01-03T04:52:13.916Z,101962.94
2023-01-03T04:54:41.431Z,101970.09
2023-01-03T04:57:08.949Z,101974.34
2023-01-03T04:59:36.500Z,101973.59
2023-01-03T05:02:05.309Z,101975.22
2023-01-03T05:04:32.865Z,101970.94
2023-01-03T05:07:00.299Z,101970.94
2023-01-03T05:09:27.778Z,101972.66
2023-01-03T05:11:55.162Z,101989.50
2023-01-03T05:14:22.591Z,101993.00
2023-01-03T05:16:50.004Z,101991.31
2023-01-03T05:19:18.873Z,101988.53
2023-01-03T05:22:06.778Z,101985.97
2023-01-03T05:24:51.308Z,101995.66
2023-01-03T05:27:18.704Z,101994.72
2023-01-03T05:29:47.372Z,101997.28
2023-01-03T05:32:14.793Z,102000.06
2023-01-03T05:34:43.521Z,102002.72
2023-01-03T05:37:10.944Z,102002.72
2023-01-03T05:39:38.356Z,102007.22
2023-01-03T05:42:05.889Z,102005.38
2023-01-03T05:44:34.161Z,102004.53
2023-01-03T05:47:01.868Z,102010.00
2023-01-03T05:49:29.298Z,102007.09
2023-01-03T05:51:57.984Z,102010.81
2023-01-03T05:54:25.870Z,102020.44
2023-01-03T05:56:53.275Z,102020.53
2023-01-03T05:59:21.019Z,102028.19
2023-01-03T06:01:48.579Z,102036.19
2023-01-03T06:04:16.292Z,102030.97
2023-01-03T06:06:43.732Z,102031.09
2023-01-03T06:09:12.423Z,102038.13
2023-01-03T06:11:40.094Z,102046.13
2023-01-03T06:14:07.509Z,102045.16
2023-01-03T06:16:52.420Z,102044.53
2023-01-03T06:19:19.927Z,102044.44
2023-01-03T06:21:47.328Z,102041.97
2023-01-03T06:24:16.019Z,102048.78
2023-01-03T06:26:43.424Z,102041.63
2023-01-03T06:29:10.835Z,102055.09
2023-01-03T06:31:38.250Z,102058.72
2023-01-03T06:34:05.641Z,102056.06
2023-01-03T06:36:34.459Z,102061.38
2023-01-03T06:39:01.983Z,102062.97
2023-01-03T06:41:30.690Z,102067.56
2023-01-03T06:43:58.105Z,102070.22
2023-01-03T06:46:44.560Z,102078.84
2023-01-03T06:49:31.918Z,102075.47
2023-01-03T06:52:16.655Z,102072.06
2023-01-03T06:54:44.053Z,102074.81
2023-01-03T06:57:26.809Z,102076.31
2023-01-03T06:59:54.781Z,102082.63
2023-01-03T07:02:22.321Z,102092.44
2023-01-03T07:04:49.867Z,102090.81
2023-01-03T07:07:17.357Z,102094.22
2023-01-03T07:09:44.758Z,102100.19
2023-01-03T07:12:31.003Z,102097.31
2023-01-03T07:14:59.437Z,102102.13
2023-01-03T07:17:26.840Z,102105.13
2023-01-03T07:19:54.250Z,102113.00
2023-01-03T07:22:21.649Z,102105.88
2023-01-03T07:24:49.057Z,102116.97
2023-01-03T07:27:17.752Z,102111.53
2023-01-03T07:29:45.187Z,102120.09
2023-01-03T07:32:12.589Z,102116.75
2023-01-03T07:34:40.001Z,102123.38
2023-01-03T07:37:07.429Z,102123.72
2023-01-03T07:39:34.854Z,102116.91
2023-01-03T07:42:19.850Z,102124.13
2023-01-03T07:44:48.544Z,102128.47
2023-01-03T07:47:15.938Z,102133.50
2023-01-03T07:49:43.345Z,102127.22
2023-01-03T07:52:11.997Z,102136.06
2023-01-03T07:54:39.373Z,102136.78
2023-01-03T07:57:06.779Z,102138.63
2023-01-03T07:59:34.221Z,102144.78
2023-01-03T08:02:03.464Z,102129.78
2023-01-03T08:04:31.006Z,102145.25
2023-01-03T08:06:58.511Z,102150.16
2023-01-03T08:09:43.303Z,102154.63
2023-01-03T08:12:28.657Z,102149.53
2023-01-03T08:14:56.076Z,102163.81
2023-01-03T08:17:24.771Z,102162.97
2023-01-03T08:19:52.177Z,102168.41
2023-01-03T08:22:19.577Z,102168.28
2023-01-03T08:24:47.007Z,102171.28
2023-01-03T08:27:14.417Z,102176.47
2023-01-03T08:29:41.833Z,102175.75
2023-01-03T08:32:09.262Z,102183.63
2023-01-03T08:34:38.006Z,102186.31
2023-01-03T08:37:07.641Z,102183.31
2023-01-03T08:39:37.699Z,102187.47
2023-01-03T08:42:06.138Z,102190.88
2023-01-03T08:44:33.546Z,102195.59
2023-01-03T08:47:01.274Z,102202.91
2023-01-03T08:49:28.710Z,102199.31
2023-01-03T08:51:57.387Z,102195.66
2023-01-03T08:54:24.790Z,102197.25
2023-01-03T08:56:52.192Z,102196.41
2023-01-03T08:59:19.600Z,102206.22
2023-01-03T09:01:47.186Z,102201.09
2023-01-03T09:04:14.759Z,102211.91
2023-01-03T09:06:42.210Z,102210.06
2023-01-03T09:09:10.902Z,102203.03
2023-01-03T09:11:38.300Z,102211.13
2023-01-03T09:14:05.702Z,102220.84
2023-01-03T09:16:33.170Z,102224.38
2023-01-03T09:19:02.507Z,102222.56
2023-01-03T09:21:30.024Z,102225.00
2023-01-03T09:23:58.563Z,102231.09
2023-01-03T09:26:27.283Z,102241.00
2023-01-03T09:28:54.689Z,102229.59
2023-01-03T09:31:22.144Z,102242.84
2023-01-03T09:33:49.598Z,102233.97
2023-01-03T09:36:17.073Z,102227.66
2023-01-03T09:38:44.755Z,102225.25
2023-01-03T09:41:22.991Z,102231.41
2023-01-03T09:43:52.969Z,102229.69
2023-01-03T09:46:21.674Z,102226.81
2023-01-03T09:48:49.488Z,102227.91
2023-01-03T09:51:36.637Z,102237.59
2023-01-03T09:54:33.315Z,102242.72
2023-01-03T09:57:23.209Z,102237.38
2023-01-03T10:00:12.834Z,102235.56
2023-01-03T10:03:12.978Z,102235.47
2023-01-03T10:06:01.501Z,102230.03
2023-01-03T10:08:34.211Z,102233.53
2023-01-03T10:11:05.839Z,102230.88
2023-01-03T10:13:41.259Z,102224.56
2023-01-03T10:16:12.158Z,102225.97
2023-01-03T10:19:06.755Z,102221.38
2023-01-03T10:21:38.921Z,102227.59
2023-01-03T10:24:15.086Z,102218.09
2023-01-03T10:26:42.560Z,102214.47
2023-01-03T10:29:09.964Z,102219.91
2023-01-03T10:31:54.358Z,102211.97
2023-01-03T10:34:21.845Z,102214.66
2023-01-03T10:36:49.274Z,102219.91
2023-01-03T10:39:16.683Z,102225.03
2023-01-03T10:41:44.843Z,102223.09
2023-01-03T10:44:23.357Z,102223.09
2023-01-03T10:46:53.473Z,102225.66
2023-01-03T10:49:30.355Z,102222.00
2023-01-03T10:51:59.970Z,102224.69
2023-01-03T10:54:30.960Z,102224.81
2023-01-03T10:56:58.500Z,102220.53
2023-01-03T10:59:26.605Z,102222.47
2023-01-03T11:01:58.925Z,102217.88
2023-01-03T11:04:26.585Z,102224.16
2023-01-03T11:07:03.882Z,102223.31
2023-01-03T11:09:34.946Z,102212.53
2023-01-03T11:12:05.256Z,102208.81
2023-01-03T11:14:33.212Z,102206.25
2023-01-03T11:17:03.664Z,102209.03
2023-01-03T11:19:32.442Z,102221.69
2023-01-03T11:22:12.456Z,102218.81
2023-01-03T11:25:05.089Z,102219.03
2023-01-03T11:27:50.898Z,102218.16
2023-01-03T11:30:20.558Z,102222.66
2023-01-03T11:32:57.150Z,102220.97
2023-01-03T11:35:48.422Z,102218.50
2023-01-03T11:38:26.925Z,102216.56
2023-01-03T11:41:00.967Z,102222.13
2023-01-03T11:43:37.905Z,102222.22
2023-01-03T11:46:22.261Z,102214.34
2023-01-03T11:49:08.464Z,102209.88
2023-01-03T11:51:40.248Z,102217.00
2023-01-03T11:54:11.694Z,102208.78
2023-01-03T11:56:39.278Z,102211.66
2023-01-03T11:59:24.643Z,102221.06
2023-01-03T12:02:25.963Z,102214.56
2023-01-03T12:04:59.660Z,102212.19
2023-01-03T12:10:16.869Z,102206.03
2023-01-03T12:12:53.757Z,102202.81
2023-01-03T12:15:22.346Z,102209.00
2023-01-03T12:17:51.672Z,102208.16
2023-01-03T12:20:23.488Z,102214.69
2023-01-03T12:22:52.960Z,102217.97
2023-01-03T12:25:22.602Z,102213.81
2023-01-03T12:27:51.542Z,102214.97
2023-01-03T12:30:25.707Z,102223.53
2023-01-03T12:32:55.074Z,102221.81
2023-01-03T12:35:29.091Z,102217.75
2023-01-03T12:37:56.512Z,102204.53
2023-01-03T12:40:27.542Z,102216.91
2023-01-03T12:42:58.965Z,102223.00
2023-01-03T12:45:34.635Z,102217.88
2023-01-03T12:48:03.797Z,102206.66
2023-01-03T12:50:34.258Z,102203.06
2023-01-03T12:53:03.821Z,102207.53
2023-01-03T12:55:35.527Z,102214.56
2023-01-03T12:58:22.605Z,102211.78
2023-01-03T13:00:57.535Z,102212.63
2023-01-03T13:03:26.619Z,102208.38
2023-01-03T13:05:57.451Z,102210.22
2023-01-03T13:08:33.781Z,102207.53
2023-01-03T13:11:02.671Z,102204.44
2023-01-03T13:13:30.419Z,102205.81
2023-01-03T13:15:57.872Z,102199.66
2023-01-03T13:18:35.983Z,102200.06
2023-01-03T13:21:28.488Z,102202.63
2023-01-03T13:23:59.305Z,102199.00
2023-01-03T13:26:26.804Z,102189.19
2023-01-03T13:28:54.407Z,102192.50
2023-01-03T13:31:47.257Z,102185.53
2023-01-03T13:34:19.646Z,102181.94
2023-01-03T13:37:12.366Z,102178.31
2023-01-03T13:39:39.821Z,102180.88
2023-01-03T13:42:07.296Z,102185.34
2023-01-03T13:44:34.711Z,102186.53
2023-01-03T13:47:02.146Z,102181.28
2023-01-03T13:49:29.658Z,102180.44
2023-01-03T13:51:57.384Z,102190.22
2023-01-03T13:54:36.950Z,102181.41
2023-01-03T13:57:51.410Z,102188.66
2023-01-03T14:00:20.660Z,102187.66
2023-01-03T14:03:24.781Z,102192.06
2023-01-03T14:06:15.131Z,102199.31
2023-01-03T14:09:03.666Z,102195.81
2023-01-03T14:11:38.324Z,102201.00
2023-01-03T14:14:06.458Z,102201.25
2023-01-03T14:16:42.976Z,102200.06
2023-01-03T14:19:13.679Z,102202.41
2023-01-03T14:21:46.886Z,102203.16
2023-01-03T14:24:18.170Z,102201.34
2023-01-03T14:26:46.889Z,102206.47
2023-01-03T14:29:18.165Z,102215.19
2023-01-03T14:31:46.659Z,102207.09
2023-01-03T14:34:18.391Z,102214.25
2023-01-03T14:36:46.359Z,102212.88
2023-01-03T14:39:21.769Z,102213.72
2023-01-03T14:41:50.712Z,102213.91
2023-01-03T14:44:18.163Z,102214.88
2023-01-03T14:46:50.188Z,102210.50
2023-01-03T14:49:21.317Z,102215.84
2023-01-03T14:51:48.761Z,102223.00
2023-01-03T14:54:18.569Z,102219.56
2023-01-03T14:56:46.585Z,102211.56
2023-01-03T14:59:15.536Z,102217.00
2023-01-03T15:01:43.152Z,102217.00
2023-01-03T15:04:11.784Z,102224.16
2023-01-03T15:06:39.233Z,102217.88
2023-01-03T15:09:15.928Z,102223.31
2023-01-03T15:11:56.909Z,102210.94
2023-01-03T15:14:26.358Z,102212.75
2023-01-03T15:16:53.863Z,102220.84
2023-01-03T15:19:22.178Z,102219.91
2023-01-03T15:21:49.598Z,102222.56
2023-01-03T15:24:18.149Z,102223.50
2023-01-03T15:26:48.864Z,102230.56
2023-01-03T15:29:17.465Z,102230.66
2023-01-03T15:31:51.540Z,102230.56
2023-01-03T15:34:19.885Z,102226.19
2023-01-03T15:36:49.137Z,102239.59
2023-01-03T15:39:18.459Z,102241.31
2023-01-03T15:42:42.441Z,102243.09
2023-01-03T15:44:51.030Z,102251.88
2023-01-03T15:47:20.307Z,102253.78
2023-01-03T15:49:48.831Z,102255.50
2023-01-03T15:52:16.329Z,102245.78
2023-01-03T15:54:44.644Z,102248.56
2023-01-03T15:57:13.696Z,102247.59
2023-01-03T15:59:43.488Z,102249.53
2023-01-03T16:02:14.610Z,102248.69
2023-01-03T16:04:43.481Z,102261.03
2023-01-03T16:07:11.468Z,102260.09
2023-01-03T16:09:38.890Z,102252.09
2023-01-03T16:12:06.322Z,102260.19
2023-01-03T16:14:34.505Z,102258.47
2023-01-03T16:17:02.053Z,102249.63
2023-01-03T16:19:29.887Z,102249.63
2023-01-03T16:24:48.429Z,102255.91
2023-01-03T16:27:16.798Z,102251.34
2023-01-03T16:29:44.296Z,102252.28
2023-01-03T16:32:16.520Z,102246.09
2023-01-03T16:34:43.978Z,102248.88
2023-01-03T16:37:12.704Z,102245.38
2023-01-03T16:39:47.461Z,102252.50
2023-01-03T16:42:15.595Z,102252.50
2023-01-03T16:44:43.645Z,102248.03
2023-01-03T16:47:12.753Z,102243.53
2023-01-03T16:49:40.176Z,102253.38
2023-01-03T16:52:07.570Z,102262.31
2023-01-03T16:54:36.303Z,102266.69
2023-01-03T16:57:03.698Z,102260.69
2023-01-03T16:59:31.349Z,102256.13
2023-01-03T17:01:58.879Z,102258.91
2023-01-03T17:04:26.542Z,102257.16
2023-01-03T17:06:53.978Z,102263.25
2023-01-03T17:09:21.961Z,102258.03
2023-01-03T17:11:50.686Z,102267.72
2023-01-03T17:14:19.585Z,102263.16
2023-01-03T17:16:47.059Z,102268.81
2023-01-03T17:19:51.213Z,102274.00
2023-01-03T17:22:05.557Z,102267.84
2023-01-03T17:24:32.973Z,102269.66
2023-01-03T17:27:03.113Z,102273.25
2023-01-03T17:29:30.576Z,102262.50
2023-01-03T17:31:57.994Z,102272.31
2023-01-03T17:34:26.646Z,102276.81
2023-01-03T17:36:54.085Z,102279.47
2023-01-03T17:39:21.499Z,102275.94
2023-01-03T17:42:06.463Z,102283.19
2023-01-03T17:44:35.171Z,102277.75
2023-01-03T17:47:20.344Z,102278.69
2023-01-03T17:49:47.764Z,102279.56
2023-01-03T17:52:23.379Z,102272.50
2023-01-03T17:54:50.793Z,102277.00
2023-01-03T17:57:18.209Z,102279.56
2023-01-03T17:59:46.924Z,102277.09
2023-01-03T18:02:17.938Z,102283.19
2023-01-03T18:05:14.226Z,102272.50
2023-01-03T18:07:34.279Z,102265.47
2023-01-03T18:10:01.750Z,102276.13
2023-01-03T18:12:29.194Z,102271.66
2023-01-03T18:14:57.902Z,102268.91
2023-01-03T18:17:28.141Z,102272.50
2023-01-03T18:19:55.557Z,102267.38
2023-01-03T18:22:23.205Z,102262.94
2023-01-03T18:24:50.653Z,102261.84
2023-01-03T18:27:18.179Z,102254.06
2023-01-03T18:29:45.591Z,102243.41
2023-01-03T18:32:26.504Z,102252.28
2023-01-03T18:34:54.058Z,102256.72
2023-01-03T18:37:21.812Z,102247.78
2023-01-03T18:39:49.292Z,102245.97
2023-01-03T18:42:34.331Z,102246.94
2023-01-03T18:45:01.766Z,102241.63
2023-01-03T18:47:30.644Z,102247.88
2023-01-03T18:49:58.118Z,102246.06
2023-01-03T18:52:26.371Z,102239.00
2023-01-03T18:54:54.045Z,102237.22
2023-01-03T18:57:21.456Z,102246.06
2023-01-03T18:59:49.399Z,102246.06
2023-01-03T19:02:17.526Z,102249.69
2023-01-03T19:04:51.392Z,102239.97
2023-01-03T19:07:19.941Z,102242.63
2023-01-03T19:09:47.352Z,102244.34
2023-01-03T19:12:15.180Z,102244.16
2023-01-03T19:14:46.563Z,102252.34
2023-01-03T19:17:14.818Z,102253.28
2023-01-03T19:19:42.455Z,102248.81
2023-01-03T19:22:17.882Z,102255.00
2023-01-03T19:24:45.291Z,102252.28
2023-01-03T19:27:14.158Z,102250.63
2023-01-03T19:29:42.505Z,102255.78
2023-01-03T19:32:12.921Z,102246.06
2023-01-03T19:34:40.365Z,102240.94
2023-01-03T19:37:09.683Z,102239.97
2023-01-03T19:39:38.377Z,102235.59
2023-01-03T19:42:25.457Z,102229.41
2023-01-03T19:44:53.053Z,102232.94
2023-01-03T19:47:20.815Z,102230.28
2023-01-03T19:49:48.378Z,102227.47
2023-01-03T19:52:15.979Z,102225.63
2023-01-03T19:54:44.732Z,102218.63
2023-01-03T19:57:16.877Z,102224.75
2023-01-03T19:59:44.442Z,102220.56
2023-01-03T20:02:25.006Z,102215.97
2023-01-03T20:04:53.246Z,102208.28
2023-01-03T20:07:20.735Z,102206.78
2023-01-03T20:09:49.447Z,102203.44
2023-01-03T20:12:18.888Z,102200.03
2023-01-03T20:14:46.534Z,102211.66
2023-01-03T20:17:18.753Z,102196.72
2023-01-03T20:19:46.164Z,102198.53
2023-01-03T20:22:30.449Z,102206.53
2023-01-03T20:25:02.270Z,102202.47
2023-01-03T20:27:29.687Z,102202.47
2023-01-03T20:29:57.122Z,102197.56
2023-01-03T20:32:25.088Z,102197.56
2023-01-03T20:34:52.511Z,102202.03
2023-01-03T20:37:19.913Z,102194.16
2023-01-03T20:39:47.381Z,102195.66
2023-01-03T20:42:21.204Z,102195.66
2023-01-03T20:44:48.652Z,102194.41
2023-01-03T20:47:16.063Z,102188.78
2023-01-03T20:49:43.480Z,102191.34
2023-01-03T20:52:14.926Z,102188.44
2023-01-03T20:54:42.356Z,102178.56
2023-01-03T20:57:14.662Z,102176.66
2023-01-03T20:59:43.399Z,102186.13
2023-01-03T21:02:11.275Z,102189.22
2023-01-03T21:04:38.793Z,102192.09
2023-01-03T21:07:11.402Z,102183.34
2023-01-03T21:09:38.318Z,102181.81
2023-01-03T21:12:05.979Z,102182.03
2023-01-03T21:14:33.410Z,102184.59
2023-01-03T21:17:02.163Z,102180.34
2023-01-03T21:19:29.574Z,102183.09
2023-01-03T21:21:58.294Z,102183.94
2023-01-03T21:24:25.797Z,102175.97
2023-01-03T21:26:53.286Z,102179.47
2023-01-03T21:29:21.904Z,102174.13
2023-01-03T21:31:49.385Z,102160.06
2023-01-03T21:34:18.925Z,102152.97
2023-01-03T21:36:46.374Z,102162.84
2023-01-03T21:39:13.909Z,102152.19
2023-01-03T21:41:55.368Z,102159.44
2023-01-03T21:44:22.797Z,102152.72
2023-01-03T21:46:50.222Z,102147.84
2023-01-03T21:49:19.170Z,102154.66
2023-01-03T21:51:46.618Z,102155.72
2023-01-03T21:54:14.007Z,102154.84
2023-01-03T21:56:46.315Z,102154.94
2023-01-03T21:59:14.592Z,102145.28
2023-01-03T22:01:56.153Z,102147.94
2023-01-03T22:04:25.028Z,102152.41
2023-01-03T22:07:00.178Z,102160.50
2023-01-03T22:09:45.535Z,102155.28
2023-01-03T22:12:15.662Z,102154.31
2023-01-03T22:14:44.286Z,102153.66
2023-01-03T22:17:11.684Z,102159.84
2023-01-03T22:19:40.409Z,102159.63
2023-01-03T22:22:08.054Z,102164.09
2023-01-03T22:24:35.481Z,102160.59
2023-01-03T22:27:02.887Z,102164.94
2023-01-03T22:29:30.311Z,102155.28
2023-01-03T22:31:57.811Z,102135.00
2023-01-03T22:34:25.287Z,102132.34
2023-01-03T22:36:53.984Z,102136.63
2023-01-03T22:39:21.402Z,102127.66
2023-01-03T22:41:48.836Z,102130.88
2023-01-03T22:44:16.251Z,102131.41
2023-01-03T22:46:43.679Z,102131.31
2023-01-03T22:49:11.145Z,102124.06
2023-01-03T22:51:38.563Z,102126.72
2023-01-03T22:54:07.294Z,102121.53
2023-01-03T22:56:34.697Z,102121.53
2023-01-03T22:59:02.238Z,102116.84
2023-01-03T23:01:30.099Z,102116.94
2023-01-03T23:03:59.696Z,102107.97
2023-01-03T23:06:27.619Z,102120.56
2023-01-03T23:08:55.228Z,102121.31
2023-01-03T23:11:42.860Z,102110.88
2023-01-03T23:14:11.558Z,102100.97
2023-01-03T23:16:39.050Z,102100.88
2023-01-03T23:19:07.601Z,102092.97
2023-01-03T23:21:35.138Z,102100.00
2023-01-03T23:24:02.572Z,102090.31
2023-01-03T23:26:31.300Z,102084.88
2023-01-03T23:28:59.785Z,102082.13
2023-01-03T23:31:27.933Z,102075.91
2023-01-03T23:33:55.375Z,102069.75
2023-01-03T23:36:22.780Z,102067.09
2023-01-03T23:38:50.189Z,102070.59
2023-01-03T23:41:18.024Z,102064.41
2023-01-03T23:43:46.721Z,102052.03
2023-01-03T23:46:15.545Z,102052.16
2023-01-03T23:48:43.015Z,102042.47
2023-01-03T23:51:10.526Z,102052.16
2023-01-03T23:53:38.226Z,102051.41
2023-01-03T23:56:05.956Z,102045.13
2023-01-03T23:58:33.368Z,102049.38
